Time;durP1;ratioP1;P1;durP2;ratioP2;P2;SDS_P1;SDS_P2;PMS_P1;PMS_P2;Temp;Humidity;BMP_temperature;BMP_pressure;BME280_temperature;BME280_humidity;BME280_pressure;Samples;Min_cycle;Max_cycle;Signal;HPM_P1;HPM_P2
2022/03/27 00:02:05;;;;;;;25.17;8.75;;;7.40;99.90;;;;;;5050024;28;20106;-68
2022/03/27 00:04:31;;;;;;;25.45;9.55;;;7.50;99.90;;;;;;5054210;28;20116;-68
2022/03/27 00:06:57;;;;;;;25.30;9.35;;;7.40;99.90;;;;;;5045258;28;20491;-67
2022/03/27 00:09:22;;;;;;;20.58;7.07;;;7.20;99.90;;;;;;5041811;28;20472;-67
2022/03/27 00:11:48;;;;;;;22.00;7.22;;;7.30;99.90;;;;;;5049882;28;20029;-68
2022/03/27 00:14:13;;;;;;;18.85;7.90;;;7.20;99.90;;;;;;5040822;28;20040;-68
2022/03/27 00:16:39;;;;;;;23.80;8.02;;;7.20;99.90;;;;;;5048354;28;20040;-68
2022/03/27 00:19:05;;;;;;;22.90;8.93;;;7.10;99.90;;;;;;5042089;28;20099;-67
2022/03/27 00:21:30;;;;;;;21.83;9.35;;;7.00;99.90;;;;;;5028674;28;20048;-67
2022/03/27 00:23:56;;;;;;;24.20;9.27;;;6.90;99.90;;;;;;5040034;28;20052;-68
2022/03/27 00:26:22;;;;;;;21.95;9.10;;;6.80;99.90;;;;;;5040956;28;20049;-68
2022/03/27 00:28:48;;;;;;;28.92;10.07;;;6.70;99.90;;;;;;5041793;28;20492;-68
2022/03/27 00:31:14;;;;;;;25.08;9.23;;;6.60;99.90;;;;;;5027826;28;20041;-68
2022/03/27 00:33:42;;;;;;;24.80;9.23;;;6.50;99.90;;;;;;5048057;28;20459;-68
2022/03/27 00:36:10;;;;;;;25.17;9.77;;;6.50;99.90;;;;;;5048491;28;20433;-68
2022/03/27 00:38:45;;;;;;;21.25;9.05;;;6.50;99.90;;;;;;5047056;28;20051;-68
2022/03/27 00:41:14;;;;;;;27.30;9.45;;;6.30;99.90;;;;;;5062485;28;20049;-68
2022/03/27 00:43:40;;;;;;;30.02;10.48;;;6.30;99.90;;;;;;5059620;28;20194;-68
2022/03/27 00:46:06;;;;;;;24.02;9.15;;;6.30;99.90;;;;;;5047215;28;20531;-68
2022/03/27 00:48:34;;;;;;;26.73;10.10;;;6.30;99.90;;;;;;5049173;28;20053;-68
2022/03/27 00:50:59;;;;;;;26.38;10.02;;;6.30;99.90;;;;;;5050160;28;20590;-67
2022/03/27 00:53:25;;;;;;;29.25;10.30;;;6.20;99.90;;;;;;5048832;28;20128;-67
2022/03/27 00:55:51;;;;;;;26.60;9.60;;;6.00;99.90;;;;;;5048952;28;20514;-68
2022/03/27 00:58:17;;;;;;;28.67;10.75;;;6.00;99.90;;;;;;5049382;28;20047;-68
2022/03/27 01:01:06;;;;;;;25.80;10.30;;;5.90;99.90;;;;;;5046600;28;20032;-68
2022/03/27 01:03:31;;;;;;;25.90;9.90;;;5.80;99.90;;;;;;5034386;28;20045;-68
2022/03/27 01:05:57;;;;;;;27.17;10.27;;;5.70;99.90;;;;;;5044782;28;20442;-67
2022/03/27 01:11:16;;;;;;;26.85;9.70;;;5.70;99.90;;;;;;5050670;28;20107;-68
2022/03/27 01:13:52;;;;;;;27.00;9.38;;;5.70;99.90;;;;;;5050871;28;20598;-67
2022/03/27 01:16:31;;;;;;;25.00;9.38;;;5.60;99.90;;;;;;5050832;28;20041;-67
2022/03/27 01:18:57;;;;;;;27.40;10.45;;;5.60;99.90;;;;;;5043963;28;20115;-68
2022/03/27 01:21:23;;;;;;;26.23;9.40;;;5.60;99.90;;;;;;5050629;28;20041;-68
2022/03/27 01:23:49;;;;;;;30.23;10.75;;;5.70;99.90;;;;;;5064282;28;20041;-67
2022/03/27 01:26:15;;;;;;;28.67;9.90;;;5.80;99.90;;;;;;5052841;28;20084;-67
2022/03/27 01:28:40;;;;;;;33.72;10.60;;;5.80;99.90;;;;;;5052820;28;20069;-68
2022/03/27 01:31:07;;;;;;;28.15;10.82;;;5.80;99.90;;;;;;5036759;28;20108;-68
2022/03/27 01:33:33;;;;;;;29.10;11.10;;;5.80;99.90;;;;;;5042276;28;20037;-68
2022/03/27 01:35:58;;;;;;;32.88;11.52;;;5.90;99.90;;;;;;5049909;28;20040;-68
2022/03/27 01:38:24;;;;;;;34.03;12.65;;;5.90;99.90;;;;;;5033883;28;20407;-68
2022/03/27 01:40:49;;;;;;;35.58;12.40;;;5.90;99.90;;;;;;5051701;28;20043;-68
2022/03/27 01:43:15;;;;;;;32.92;11.38;;;6.00;99.90;;;;;;5048468;28;20037;-68
2022/03/27 01:45:41;;;;;;;32.22;11.18;;;6.00;99.90;;;;;;5053155;28;20476;-68
2022/03/27 01:48:06;;;;;;;38.75;12.23;;;6.20;99.90;;;;;;5052703;28;20079;-67
2022/03/27 01:50:32;;;;;;;34.03;11.77;;;6.20;99.90;;;;;;5042921;28;20120;-68
2022/03/27 01:52:57;;;;;;;33.00;11.35;;;6.20;99.90;;;;;;5053268;28;20729;-70
2022/03/27 01:55:23;;;;;;;44.33;15.63;;;6.20;99.90;;;;;;5052329;28;20044;-68
2022/03/27 01:57:48;;;;;;;36.70;12.18;;;6.20;99.90;;;;;;5052006;28;20044;-68
2022/03/27 02:00:14;;;;;;;41.35;13.30;;;6.20;99.90;;;;;;5053687;28;20056;-68
2022/03/27 02:02:40;;;;;;;39.42;13.48;;;6.20;99.90;;;;;;5048966;28;20045;-68
2022/03/27 02:05:06;;;;;;;37.10;12.82;;;6.10;99.90;;;;;;5033522;28;20133;-68
2022/03/27 02:07:42;;;;;;;40.17;13.82;;;6.10;99.90;;;;;;5049284;28;20136;-68
2022/03/27 02:10:08;;;;;;;42.92;15.10;;;6.10;99.90;;;;;;5053241;28;20029;-68
2022/03/27 02:12:35;;;;;;;45.10;14.60;;;6.00;99.90;;;;;;5053218;28;20180;-68
2022/03/27 02:15:03;;;;;;;46.40;14.90;;;6.00;99.90;;;;;;5053337;28;20435;-68
2022/03/27 02:17:29;;;;;;;46.17;15.55;;;5.90;99.90;;;;;;5052646;28;20037;-68
2022/03/27 02:19:54;;;;;;;47.58;16.23;;;5.80;99.90;;;;;;5053938;28;20045;-68
2022/03/27 02:22:20;;;;;;;44.13;15.70;;;5.70;99.90;;;;;;5053068;28;20044;-68
2022/03/27 02:24:45;;;;;;;45.08;15.88;;;5.50;99.90;;;;;;5052972;28;20051;-68
2022/03/27 02:27:11;;;;;;;48.05;14.98;;;5.50;99.90;;;;;;5053606;28;20136;-68
2022/03/27 02:29:36;;;;;;;45.75;15.35;;;5.40;99.90;;;;;;5053653;28;20128;-68
2022/03/27 02:32:02;;;;;;;41.15;14.05;;;5.30;99.90;;;;;;5053669;28;20497;-68
2022/03/27 02:34:28;;;;;;;35.97;12.60;;;5.20;99.90;;;;;;5054469;28;20072;-67
2022/03/27 02:36:53;;;;;;;37.55;12.15;;;5.10;99.90;;;;;;5037553;28;20041;-68
2022/03/27 02:39:20;;;;;;;35.50;11.98;;;5.10;99.90;;;;;;5054150;28;20040;-68
2022/03/27 02:41:45;;;;;;;29.45;10.48;;;5.00;99.90;;;;;;5054015;28;20048;-67
2022/03/27 02:44:12;;;;;;;30.50;10.57;;;5.00;99.90;;;;;;5054365;28;20041;-67
2022/03/27 02:46:38;;;;;;;29.67;10.05;;;4.90;99.90;;;;;;5053125;28;20048;-67
2022/03/27 02:49:04;;;;;;;28.00;10.20;;;4.80;99.90;;;;;;5053833;28;20076;-67
2022/03/27 02:51:29;;;;;;;25.02;8.60;;;4.80;99.90;;;;;;5053550;28;20048;-68
2022/03/27 02:53:55;;;;;;;26.55;8.80;;;4.80;99.90;;;;;;5053495;28;20037;-67
2022/03/27 02:56:20;;;;;;;27.92;9.18;;;4.60;99.90;;;;;;5054149;28;20440;-67
2022/03/27 02:58:46;;;;;;;26.08;9.52;;;4.60;99.90;;;;;;5033924;28;20037;-67
2022/03/27 03:01:12;;;;;;;30.38;9.15;;;4.50;99.90;;;;;;5048307;28;20102;-66
2022/03/27 03:03:37;;;;;;;29.10;7.63;;;4.50;99.90;;;;;;5039363;28;20037;-67
2022/03/27 03:06:05;;;;;;;28.75;8.82;;;4.60;99.90;;;;;;5053386;28;20106;-67
2022/03/27 03:08:31;;;;;;;24.60;8.73;;;4.40;99.90;;;;;;5060645;28;20038;-67
2022/03/27 03:11:00;;;;;;;29.38;8.65;;;4.40;99.90;;;;;;5052537;28;20037;-67
2022/03/27 03:13:25;;;;;;;32.67;8.75;;;4.30;99.90;;;;;;5053256;28;20045;-67
2022/03/27 03:15:51;;;;;;;27.08;7.30;;;4.30;99.90;;;;;;5053440;28;20040;-67
2022/03/27 03:18:17;;;;;;;24.08;7.55;;;4.30;99.90;;;;;;5053618;28;20438;-67
2022/03/27 03:20:42;;;;;;;27.23;7.78;;;4.20;99.90;;;;;;5053308;28;20076;-67
2022/03/27 03:23:08;;;;;;;25.02;7.95;;;4.20;99.90;;;;;;5024514;28;20045;-67
2022/03/27 03:25:34;;;;;;;29.63;7.80;;;4.20;99.90;;;;;;5065067;28;20071;-67
2022/03/27 03:28:00;;;;;;;29.70;8.23;;;4.20;99.90;;;;;;5038490;28;20037;-66
2022/03/27 03:30:26;;;;;;;27.65;7.38;;;4.20;99.90;;;;;;5069443;28;20395;-66
2022/03/27 03:32:51;;;;;;;26.73;6.70;;;4.10;99.90;;;;;;5054097;28;20388;-67
2022/03/27 03:35:17;;;;;;;30.05;7.68;;;4.10;99.90;;;;;;5052446;28;20036;-67
2022/03/27 03:37:42;;;;;;;22.67;6.35;;;4.10;99.90;;;;;;5052015;28;20037;-68
2022/03/27 03:40:08;;;;;;;29.58;7.75;;;4.10;99.90;;;;;;5050572;28;20403;-66
2022/03/27 03:42:35;;;;;;;28.05;8.02;;;4.10;99.90;;;;;;5052093;28;20067;-67
2022/03/27 03:45:00;;;;;;;32.28;8.73;;;4.10;99.90;;;;;;5052300;28;20045;-67
2022/03/27 03:47:26;;;;;;;31.42;8.23;;;4.10;99.90;;;;;;5052070;28;20051;-66
2022/03/27 03:49:52;;;;;;;38.38;9.82;;;4.20;99.90;;;;;;5051987;28;20047;-66
2022/03/27 03:52:17;;;;;;;40.15;10.93;;;4.20;99.90;;;;;;5052324;28;20041;-66
2022/03/27 03:54:45;;;;;;;38.33;10.90;;;4.10;99.90;;;;;;5042698;28;20049;-67
2022/03/27 03:57:11;;;;;;;40.65;11.32;;;4.10;99.90;;;;;;5049052;28;20416;-67
2022/03/27 03:59:36;;;;;;;40.70;11.25;;;4.10;99.90;;;;;;5065824;28;20087;-67
2022/03/27 04:02:05;;;;;;;50.88;11.57;;;4.10;99.90;;;;;;5052223;28;20041;-66
2022/03/27 04:04:32;;;;;;;45.45;12.88;;;4.00;99.90;;;;;;5052545;28;20045;-66
2022/03/27 04:06:58;;;;;;;39.92;13.00;;;3.90;99.90;;;;;;5052283;28;20044;-67
2022/03/27 04:09:24;;;;;;;52.97;14.80;;;3.90;99.90;;;;;;5052133;28;20129;-67
2022/03/27 04:11:50;;;;;;;47.38;13.15;;;3.80;99.90;;;;;;5051576;28;20463;-68
2022/03/27 04:14:16;;;;;;;45.65;11.95;;;3.80;99.90;;;;;;5047404;28;20396;-68
2022/03/27 04:16:42;;;;;;;47.30;13.48;;;3.70;99.90;;;;;;5050746;28;20045;-67
2022/03/27 04:19:08;;;;;;;54.20;14.07;;;3.70;99.90;;;;;;5051712;28;20527;-67
2022/03/27 04:21:33;;;;;;;47.15;11.85;;;3.70;99.90;;;;;;5068692;28;20135;-67
2022/03/27 04:23:59;;;;;;;55.10;14.00;;;3.70;99.90;;;;;;5051609;28;20048;-68
2022/03/27 04:26:25;;;;;;;61.97;14.25;;;3.80;99.90;;;;;;5052357;28;20049;-67
2022/03/27 04:28:50;;;;;;;52.35;13.95;;;3.80;99.90;;;;;;5051727;28;20068;-67
2022/03/27 04:31:18;;;;;;;51.53;13.45;;;3.90;99.90;;;;;;5051808;28;20076;-67
2022/03/27 04:33:43;;;;;;;46.70;12.30;;;3.70;99.90;;;;;;5051824;28;20087;-67
2022/03/27 04:36:09;;;;;;;52.40;13.95;;;3.70;99.90;;;;;;5045966;28;20500;-67
2022/03/27 04:38:34;;;;;;;49.05;13.65;;;3.70;99.90;;;;;;5031749;28;20049;-67
2022/03/27 04:41:00;;;;;;;54.03;13.52;;;3.70;99.90;;;;;;5032173;28;20067;-67
2022/03/27 04:43:27;;;;;;;52.75;12.13;;;3.80;99.90;;;;;;5067688;28;20077;-66
2022/03/27 04:45:52;;;;;;;39.72;11.68;;;3.80;99.90;;;;;;5036899;28;20041;-67
2022/03/27 04:48:18;;;;;;;42.00;11.45;;;3.90;99.90;;;;;;5067037;28;20136;-66
2022/03/27 04:50:44;;;;;;;50.55;12.75;;;3.80;99.90;;;;;;5050904;28;20033;-66
2022/03/27 04:53:10;;;;;;;51.22;12.45;;;3.80;99.90;;;;;;5036432;28;20045;-67
2022/03/27 04:55:36;;;;;;;47.97;12.18;;;3.80;99.90;;;;;;5048378;28;20036;-67
2022/03/27 04:58:01;;;;;;;43.28;11.05;;;3.80;99.90;;;;;;5050649;28;20095;-67
2022/03/27 05:00:28;;;;;;;48.00;13.02;;;3.70;99.90;;;;;;5051870;28;20090;-67
2022/03/27 05:02:54;;;;;;;51.20;12.68;;;3.80;99.90;;;;;;5051598;28;20450;-67
2022/03/27 05:05:22;;;;;;;42.53;11.82;;;3.70;99.90;;;;;;5051629;28;20407;-67
2022/03/27 05:07:47;;;;;;;49.13;12.88;;;3.70;99.90;;;;;;5051476;28;20044;-67
2022/03/27 05:10:13;;;;;;;51.45;12.50;;;3.60;99.90;;;;;;5034832;28;20037;-67
2022/03/27 05:12:40;;;;;;;44.25;12.57;;;3.50;99.90;;;;;;5033646;28;20042;-67
2022/03/27 05:15:06;;;;;;;40.22;12.50;;;3.50;99.90;;;;;;5048368;28;20128;-68
2022/03/27 05:17:32;;;;;;;39.03;11.27;;;3.40;99.90;;;;;;5030645;28;20053;-68
2022/03/27 05:19:57;;;;;;;42.97;12.18;;;3.30;99.90;;;;;;5050601;28;20040;-68
2022/03/27 05:22:23;;;;;;;43.72;12.52;;;3.30;99.90;;;;;;5050899;28;20037;-67
2022/03/27 05:24:48;;;;;;;37.25;11.15;;;3.30;99.90;;;;;;5050312;28;20041;-68
2022/03/27 05:27:18;;;;;;;38.25;11.77;;;3.20;99.90;;;;;;5050754;28;20049;-68
2022/03/27 05:29:44;;;;;;;37.58;11.32;;;3.20;99.90;;;;;;5050609;28;20037;-67
2022/03/27 05:32:09;;;;;;;41.83;11.98;;;3.20;99.90;;;;;;5050896;28;20427;-67
2022/03/27 05:34:35;;;;;;;38.03;10.88;;;3.20;99.90;;;;;;5051061;28;20044;-67
2022/03/27 05:37:01;;;;;;;38.38;11.27;;;3.20;99.90;;;;;;5051205;28;20492;-67
2022/03/27 05:39:27;;;;;;;40.60;10.65;;;3.10;99.90;;;;;;5050752;28;20044;-67
2022/03/27 05:41:52;;;;;;;44.60;12.48;;;3.10;99.90;;;;;;5051011;28;20060;-67
2022/03/27 05:44:18;;;;;;;54.70;13.05;;;3.20;99.90;;;;;;5050404;28;20487;-67
2022/03/27 05:46:43;;;;;;;46.97;12.75;;;3.20;99.90;;;;;;5050230;28;20045;-68
2022/03/27 05:49:09;;;;;;;45.17;12.20;;;3.30;99.90;;;;;;5049587;28;20045;-68
2022/03/27 05:51:34;;;;;;;62.97;13.25;;;3.40;99.90;;;;;;5050280;28;20041;-67
2022/03/27 05:54:00;;;;;;;50.00;12.95;;;3.50;99.90;;;;;;5049725;28;20086;-68
2022/03/27 05:56:25;;;;;;;52.20;12.82;;;3.60;99.90;;;;;;5050140;28;20483;-68
2022/03/27 05:58:51;;;;;;;51.33;12.18;;;3.70;99.90;;;;;;5050306;28;20399;-67
2022/03/27 06:01:17;;;;;;;53.63;12.90;;;3.80;99.90;;;;;;5050341;28;20407;-67
2022/03/27 06:03:42;;;;;;;51.83;13.15;;;3.90;99.90;;;;;;5048018;28;20086;-68
2022/03/27 06:06:08;;;;;;;62.38;13.15;;;4.00;99.90;;;;;;5041842;28;20044;-68
2022/03/27 06:08:33;;;;;;;70.43;14.00;;;4.20;99.90;;;;;;5050424;28;20037;-67
2022/03/27 06:10:59;;;;;;;78.25;14.65;;;4.40;99.90;;;;;;5053373;28;20083;-67
2022/03/27 06:13:34;;;;;;;61.90;14.18;;;4.60;99.90;;;;;;5053870;28;20048;-67
2022/03/27 06:15:59;;;;;;;61.67;12.00;;;4.80;99.90;;;;;;5033446;28;20045;-66
2022/03/27 06:18:25;;;;;;;70.50;13.13;;;4.90;99.90;;;;;;5044604;28;20056;-65
2022/03/27 06:20:50;;;;;;;80.75;14.57;;;5.20;99.90;;;;;;5054870;28;20062;-67
2022/03/27 06:23:16;;;;;;;53.58;10.38;;;5.30;99.90;;;;;;5037095;28;20044;-66
2022/03/27 06:25:42;;;;;;;79.38;10.20;;;5.50;99.90;;;;;;5052451;28;20124;-68
2022/03/27 06:28:07;;;;;;;66.35;13.68;;;5.80;99.90;;;;;;5053633;28;20508;-67
2022/03/27 06:30:35;;;;;;;67.07;12.50;;;5.90;99.90;;;;;;5036485;28;20032;-68
2022/03/27 06:33:01;;;;;;;81.85;13.63;;;5.90;99.90;;;;;;5053660;28;20475;-68
2022/03/27 06:35:27;;;;;;;70.60;13.10;;;6.00;99.90;;;;;;5052696;28;20035;-68
2022/03/27 06:37:52;;;;;;;53.42;8.80;;;6.00;99.90;;;;;;5052429;28;20493;-67
2022/03/27 06:40:20;;;;;;;40.17;8.68;;;6.20;99.90;;;;;;5056051;28;20053;-68
2022/03/27 06:42:46;;;;;;;51.25;9.50;;;6.40;99.90;;;;;;5065939;28;20033;-67
2022/03/27 06:45:13;;;;;;;74.45;12.65;;;6.40;99.90;;;;;;5053353;28;20047;-67
2022/03/27 06:47:39;;;;;;;51.33;10.75;;;6.40;99.90;;;;;;5051551;28;20449;-68
2022/03/27 06:50:06;;;;;;;57.92;10.65;;;6.40;99.90;;;;;;5052374;28;20033;-68
2022/03/27 06:52:34;;;;;;;53.95;11.68;;;6.60;99.90;;;;;;5053497;28;20122;-69
2022/03/27 06:55:03;;;;;;;67.65;12.13;;;6.60;99.90;;;;;;5059305;28;20033;-66
2022/03/27 06:57:29;;;;;;;66.22;11.00;;;6.60;99.90;;;;;;5059315;28;20458;-68
2022/03/27 07:05:23;;;;;;;55.10;10.27;;;6.80;99.90;;;;;;5044238;28;20095;-69
2022/03/27 07:07:49;;;;;;;78.43;13.25;;;6.90;99.90;;;;;;5051737;28;20076;-69
2022/03/27 07:10:16;;;;;;;82.53;13.88;;;7.00;99.90;;;;;;5051868;28;20045;-69
2022/03/27 07:12:42;;;;;;;66.30;12.55;;;7.10;99.90;;;;;;5050947;28;20072;-69
2022/03/27 07:15:09;;;;;;;85.45;13.32;;;7.30;99.90;;;;;;5045406;28;20037;-69
2022/03/27 07:17:44;;;;;;;55.65;10.52;;;7.30;99.90;;;;;;5044796;28;20068;-69
2022/03/27 07:20:11;;;;;;;73.82;12.23;;;7.40;99.90;;;;;;5051650;28;20048;-69
2022/03/27 07:22:36;;;;;;;66.30;10.55;;;7.40;99.90;;;;;;5050919;28;20123;-69
2022/03/27 07:25:03;;;;;;;73.20;12.13;;;7.30;99.90;;;;;;5052606;28;20091;-68
2022/03/27 07:27:31;;;;;;;77.88;12.77;;;7.30;99.90;;;;;;5053061;28;20046;-68
2022/03/27 07:29:56;;;;;;;80.13;13.05;;;7.40;99.90;;;;;;5052248;28;20037;-68
2022/03/27 07:32:22;;;;;;;71.45;12.68;;;7.30;99.90;;;;;;5052463;28;20098;-68
2022/03/27 07:34:47;;;;;;;90.07;14.27;;;7.40;99.90;;;;;;5052327;28;20483;-67
2022/03/27 07:37:13;;;;;;;82.45;13.75;;;7.40;99.90;;;;;;5051343;28;20437;-69
2022/03/27 07:39:38;;;;;;;85.85;13.77;;;7.50;99.90;;;;;;5057284;28;20463;-68
2022/03/27 07:42:04;;;;;;;58.50;11.05;;;7.70;99.90;;;;;;5052781;28;20076;-68
2022/03/27 07:44:31;;;;;;;73.95;13.80;;;7.80;99.90;;;;;;5055563;28;20047;-68
2022/03/27 07:46:59;;;;;;;57.58;9.63;;;7.70;99.90;;;;;;5053480;28;20130;-67
2022/03/27 07:49:25;;;;;;;70.00;11.32;;;7.80;99.90;;;;;;5052028;28;20056;-68
2022/03/27 07:51:53;;;;;;;77.88;12.90;;;7.90;99.90;;;;;;5051578;28;20037;-67
2022/03/27 07:54:19;;;;;;;80.47;13.25;;;7.80;99.90;;;;;;5051521;28;20044;-68
2022/03/27 07:56:44;;;;;;;73.05;12.70;;;7.90;99.90;;;;;;5051140;28;20542;-68
2022/03/27 07:59:10;;;;;;;81.47;13.45;;;7.90;99.90;;;;;;5051595;28;20036;-68
2022/03/27 08:01:35;;;;;;;67.38;12.63;;;7.80;99.90;;;;;;5054668;28;20049;-68
2022/03/27 08:04:01;;;;;;;75.70;13.00;;;7.90;99.90;;;;;;5052078;28;20075;-67
2022/03/27 08:06:29;;;;;;;59.60;10.48;;;7.90;99.90;;;;;;5050205;28;20044;-67
2022/03/27 08:08:56;;;;;;;68.38;12.57;;;7.90;99.90;;;;;;5050755;28;20503;-68
2022/03/27 08:11:23;;;;;;;69.43;13.43;;;8.00;99.90;;;;;;5051288;28;20041;-68
2022/03/27 08:13:49;;;;;;;75.55;13.55;;;8.00;99.90;;;;;;5054794;28;20119;-68
2022/03/27 08:16:14;;;;;;;70.03;12.75;;;7.80;99.90;;;;;;5049475;28;20115;-68
2022/03/27 08:18:40;;;;;;;74.78;12.02;;;7.90;99.90;;;;;;5053070;28;20044;-69
2022/03/27 08:21:05;;;;;;;75.25;13.32;;;7.90;99.90;;;;;;5054981;28;20036;-68
2022/03/27 08:23:31;;;;;;;73.97;12.68;;;8.00;99.90;;;;;;5057087;28;20111;-69
2022/03/27 08:28:43;;;;;;;78.68;13.75;;;8.40;99.90;;;;;;5047056;28;20047;-68
2022/03/27 08:31:08;;;;;;;72.60;13.82;;;8.70;99.90;;;;;;5046971;28;20037;-69
2022/03/27 08:33:34;;;;;;;78.20;13.15;;;9.00;99.90;;;;;;5043292;28;20030;-68
2022/03/27 08:35:59;;;;;;;55.10;10.60;;;9.20;99.90;;;;;;5034625;28;20040;-69
2022/03/27 08:38:25;;;;;;;75.53;13.60;;;9.30;99.90;;;;;;5045197;28;20037;-68
2022/03/27 08:40:54;;;;;;;85.43;13.15;;;9.20;99.90;;;;;;5044277;28;20037;-68
2022/03/27 08:43:19;;;;;;;59.88;11.38;;;9.00;99.90;;;;;;5048748;28;20060;-68
2022/03/27 08:45:45;;;;;;;68.00;13.15;;;9.10;99.90;;;;;;5049149;28;20040;-68
2022/03/27 08:48:12;;;;;;;73.65;12.43;;;8.90;99.90;;;;;;5048536;28;20037;-68
2022/03/27 08:50:43;;;;;;;70.15;12.50;;;8.80;99.90;;;;;;5049664;28;20079;-68
2022/03/27 08:53:42;;;;;;;88.78;13.60;;;8.80;99.90;;;;;;5049524;28;20032;-67
2022/03/27 08:56:10;;;;;;;80.10;13.60;;;8.90;99.90;;;;;;5052629;28;20095;-68
2022/03/27 08:58:40;;;;;;;61.78;11.85;;;9.00;99.90;;;;;;5049851;28;20499;-68
2022/03/27 09:01:07;;;;;;;73.20;11.80;;;9.10;99.90;;;;;;5051622;28;20545;-68
2022/03/27 09:03:34;;;;;;;40.92;8.65;;;9.00;99.90;;;;;;5047067;28;20052;-69
2022/03/27 09:06:01;;;;;;;58.33;11.18;;;9.10;99.90;;;;;;5048287;28;20068;-68
2022/03/27 09:08:29;;;;;;;47.92;8.48;;;9.00;99.90;;;;;;5044438;28;20484;-68
2022/03/27 09:10:55;;;;;;;65.85;11.43;;;9.00;99.90;;;;;;5043472;28;20485;-68
2022/03/27 09:13:21;;;;;;;69.32;11.88;;;9.00;99.90;;;;;;5067162;28;21402;-68
2022/03/27 09:16:01;;;;;;;64.90;11.82;;;9.00;99.90;;;;;;5050960;28;20056;-69
2022/03/27 09:19:07;;;;;;;71.13;11.20;;;9.20;99.90;;;;;;5052732;28;20187;-69
2022/03/27 09:21:33;;;;;;;63.58;11.23;;;9.30;99.90;;;;;;5047124;28;20086;-68
2022/03/27 09:24:02;;;;;;;62.08;12.10;;;9.30;99.90;;;;;;5060049;28;20045;-68
2022/03/27 09:26:30;;;;;;;69.90;12.73;;;9.30;99.90;;;;;;5063072;28;20079;-69
2022/03/27 09:29:16;;;;;;;70.97;11.45;;;9.30;99.90;;;;;;5052294;28;20048;-68
2022/03/27 09:31:42;;;;;;;62.92;10.23;;;9.40;99.90;;;;;;5055326;28;20463;-69
2022/03/27 09:34:07;;;;;;;65.38;11.15;;;9.50;99.90;;;;;;5058384;28;20123;-69
2022/03/27 09:36:42;;;;;;;62.17;10.82;;;9.60;99.90;;;;;;5049302;28;20095;-69
2022/03/27 09:39:23;;;;;;;56.55;10.30;;;9.70;99.90;;;;;;5051694;28;20511;-68
2022/03/27 09:42:03;;;;;;;59.03;10.30;;;9.80;99.90;;;;;;5046838;28;20041;-68
2022/03/27 09:44:28;;;;;;;59.47;9.88;;;9.90;99.90;;;;;;5059823;28;20037;-70
2022/03/27 09:47:04;;;;;;;45.83;7.38;;;9.90;99.90;;;;;;5051996;28;20045;-71
2022/03/27 09:49:35;;;;;;;41.85;8.27;;;10.00;99.90;;;;;;5050979;28;20048;-68
2022/03/27 09:52:08;;;;;;;53.22;8.88;;;10.10;99.90;;;;;;5052507;28;20383;-69
2022/03/27 09:54:58;;;;;;;55.42;9.13;;;10.10;99.90;;;;;;5049970;28;20047;-71
2022/03/27 09:57:41;;;;;;;63.85;9.68;;;10.20;99.90;;;;;;5053478;28;20127;-70
2022/03/27 10:00:18;;;;;;;56.92;9.57;;;10.30;99.90;;;;;;5062118;28;20025;-70
2022/03/27 10:02:45;;;;;;;52.75;10.65;;;10.40;99.90;;;;;;5032519;28;20384;-68
2022/03/27 10:05:16;;;;;;;61.80;10.90;;;10.50;99.90;;;;;;5060759;28;20483;-69
2022/03/27 10:07:47;;;;;;;64.80;10.27;;;10.60;99.90;;;;;;5060913;28;20045;-68
2022/03/27 10:10:16;;;;;;;51.65;9.93;;;10.70;99.90;;;;;;5051586;28;20028;-67
2022/03/27 10:12:44;;;;;;;58.08;9.13;;;10.80;99.90;;;;;;5050852;28;20495;-68
2022/03/27 10:15:13;;;;;;;56.10;8.98;;;10.90;99.90;;;;;;5049912;28;20041;-69
2022/03/27 10:17:41;;;;;;;54.38;10.07;;;11.00;99.90;;;;;;5034856;28;20048;-67
2022/03/27 10:20:14;;;;;;;55.22;9.45;;;11.00;99.90;;;;;;5058456;28;20554;-69
2022/03/27 10:22:47;;;;;;;48.00;8.50;;;11.10;99.90;;;;;;5057768;28;20079;-69
2022/03/27 10:25:16;;;;;;;50.60;9.88;;;11.20;99.90;;;;;;5051628;28;20045;-69
2022/03/27 10:27:43;;;;;;;49.33;9.18;;;11.30;99.90;;;;;;5066007;28;20099;-69
2022/03/27 10:30:10;;;;;;;53.22;9.07;;;11.30;99.90;;;;;;5056486;28;20095;-69
2022/03/27 10:32:38;;;;;;;49.35;8.70;;;11.30;99.90;;;;;;5059075;28;20037;-67
2022/03/27 10:35:40;;;;;;;51.95;9.88;;;11.40;99.90;;;;;;5040156;28;20395;-69
2022/03/27 10:38:24;;;;;;;35.75;6.53;;;11.50;99.90;;;;;;5054208;28;20073;-69
2022/03/27 10:41:13;;;;;;;47.20;7.40;;;11.60;99.90;;;;;;5042974;28;20508;-70
2022/03/27 10:44:11;;;;;;;33.45;5.88;;;11.70;99.90;;;;;;5064717;28;20102;-67
2022/03/27 10:46:37;;;;;;;47.33;8.52;;;11.80;99.90;;;;;;5056647;28;20511;-68
2022/03/27 10:49:12;;;;;;;53.15;8.65;;;11.90;99.90;;;;;;5045989;28;20033;-68
2022/03/27 10:51:41;;;;;;;46.65;8.35;;;12.00;99.90;;;;;;5050180;28;20434;-68
2022/03/27 10:54:16;;;;;;;46.50;6.50;;;12.10;99.90;;;;;;5052947;28;20439;-68
2022/03/27 10:56:48;;;;;;;57.83;9.38;;;12.10;99.90;;;;;;5053266;28;20093;-68
2022/03/27 10:59:20;;;;;;;46.92;8.30;;;12.20;99.90;;;;;;5046235;28;20079;-68
2022/03/27 11:01:50;;;;;;;52.50;8.18;;;12.30;99.90;;;;;;5057446;28;20040;-68
2022/03/27 11:04:22;;;;;;;44.88;8.32;;;12.30;99.90;;;;;;5054945;28;20048;-69
2022/03/27 11:06:50;;;;;;;37.40;6.93;;;12.50;99.90;;;;;;5052478;28;20103;-67
2022/03/27 11:09:33;;;;;;;37.83;7.15;;;12.60;95.90;;;;;;5048738;28;20033;-66
2022/03/27 11:12:00;;;;;;;42.95;7.38;;;12.60;98.20;;;;;;5049184;28;20041;-67
2022/03/27 11:14:48;;;;;;;43.92;7.80;;;12.60;99.90;;;;;;5064619;28;20041;-67
2022/03/27 11:17:14;;;;;;;48.05;7.50;;;12.70;99.90;;;;;;5052152;28;20037;-68
2022/03/27 11:19:46;;;;;;;37.85;7.00;;;12.80;99.90;;;;;;5054551;28;20041;-69
2022/03/27 11:22:30;;;;;;;;;;;12.90;99.00;;;;;;5054761;28;20068;-68
2022/03/27 11:25:30;;;;;;;38.75;6.75;;;12.90;99.90;;;;;;5061701;28;19931;-67
2022/03/27 11:28:03;;;;;;;32.53;6.07;;;13.10;94.60;;;;;;5049168;28;20083;-66
2022/03/27 11:30:30;;;;;;;37.17;6.05;;;13.10;90.50;;;;;;5051753;28;20037;-67
2022/03/27 11:33:29;;;;;;;40.67;6.78;;;13.10;96.90;;;;;;5064613;28;20033;-67
2022/03/27 11:36:01;;;;;;;39.08;6.28;;;13.20;99.90;;;;;;5027452;28;20500;-68
2022/03/27 11:38:29;;;;;;;39.33;6.28;;;13.30;99.90;;;;;;5050305;28;20048;-68
2022/03/27 11:40:57;;;;;;;30.85;6.05;;;13.40;91.10;;;;;;5049651;28;20086;-69
2022/03/27 11:43:27;;;;;;;40.35;6.38;;;13.50;89.70;;;;;;5057629;28;20450;-68
2022/03/27 11:45:55;;;;;;;42.63;7.13;;;13.60;95.00;;;;;;5050234;28;20037;-68
2022/03/27 11:48:20;;;;;;;41.95;7.50;;;13.60;98.10;;;;;;5061579;28;20120;-68
2022/03/27 11:50:46;;;;;;;39.20;5.68;;;13.70;98.10;;;;;;5051655;28;20144;-67
2022/03/27 11:53:12;;;;;;;35.85;6.10;;;13.70;99.90;;;;;;5049393;28;20041;-68
2022/03/27 11:55:39;;;;;;;31.02;5.20;;;13.90;97.60;;;;;;5053307;28;20037;-68
2022/03/27 11:58:07;;;;;;;40.50;5.90;;;14.00;76.20;;;;;;5051327;28;20502;-69
2022/03/27 12:00:41;;;;;;;32.63;5.75;;;14.00;66.10;;;;;;5031350;28;20048;-70
2022/03/27 12:03:21;;;;;;;30.25;4.93;;;14.00;80.80;;;;;;5047841;28;20041;-71
2022/03/27 12:05:48;;;;;;;39.08;5.35;;;14.10;90.70;;;;;;5046597;28;20125;-66
2022/03/27 12:08:17;;;;;;;30.52;4.45;;;14.10;75.00;;;;;;5049065;28;20040;-66
2022/03/27 12:10:47;;;;;;;27.58;5.07;;;14.10;64.70;;;;;;5053145;28;20045;-68
2022/03/27 12:13:14;;;;;;;33.10;4.65;;;14.20;67.60;;;;;;5050416;28;20040;-68
2022/03/27 12:15:49;;;;;;;32.50;5.15;;;14.20;62.10;;;;;;5050904;28;20033;-68
2022/03/27 12:18:25;;;;;;;28.90;4.68;;;14.30;61.30;;;;;;5031249;28;20380;-68
2022/03/27 12:20:51;;;;;;;34.22;5.53;;;14.30;61.60;;;;;;5046522;28;20388;-66
2022/03/27 12:23:18;;;;;;;25.67;4.20;;;14.30;61.90;;;;;;5048858;28;20041;-68
2022/03/27 12:25:44;;;;;;;36.10;5.63;;;14.30;65.60;;;;;;5054860;28;20041;-67
2022/03/27 12:30:53;;;;;;;26.15;4.82;;;14.40;72.70;;;;;;5040114;28;20128;-66
2022/03/27 12:33:20;;;;;;;25.42;5.20;;;14.50;69.20;;;;;;5042346;28;20127;-67
2022/03/27 12:36:01;;;;;;;24.00;4.82;;;14.50;61.50;;;;;;5050367;28;20043;-65
2022/03/27 12:38:34;;;;;;;25.83;5.20;;;14.60;61.60;;;;;;5047395;28;20123;-66
2022/03/27 12:41:01;;;;;;;23.77;4.63;;;14.60;59.00;;;;;;5030504;28;20041;-68
2022/03/27 12:43:28;;;;;;;36.70;5.60;;;14.60;56.70;;;;;;5046253;28;20621;-68
2022/03/27 12:45:55;;;;;;;29.88;5.07;;;14.70;58.20;;;;;;5045264;28;20143;-67
2022/03/27 12:48:23;;;;;;;23.50;4.28;;;14.70;57.10;;;;;;5049694;28;20049;-67
2022/03/27 12:50:51;;;;;;;32.35;5.90;;;14.70;58.00;;;;;;5047787;28;20029;-67
2022/03/27 12:53:22;;;;;;;26.58;5.30;;;14.80;60.40;;;;;;5055684;28;20437;-68
2022/03/27 12:55:57;;;;;;;30.42;5.95;;;14.80;57.50;;;;;;5046765;28;20079;-68
2022/03/27 12:58:42;;;;;;;23.55;4.13;;;14.80;58.30;;;;;;5049393;28;20128;-67